sensor_id;sensor_type;location;lat;lon;timestamp;pressure;altitude;pressure_sealevel;temperature;humidity
77235;BME280;66253;50.526;14.974;2024-02-21T00:00:03;99851.08;;;6.48;91.59
77235;BME280;66253;50.526;14.974;2024-02-21T00:02:33;99851.28;;;6.47;91.65
77235;BME280;66253;50.526;14.974;2024-02-21T00:05:02;99845.91;;;6.45;91.52
77235;BME280;66253;50.526;14.974;2024-02-21T00:07:31;99851.02;;;6.45;91.73
77235;BME280;66253;50.526;14.974;2024-02-21T00:09:59;99847.17;;;6.43;91.85
77235;BME280;66253;50.526;14.974;2024-02-21T00:12:27;99849.90;;;6.42;91.76
77235;BME280;66253;50.526;14.974;2024-02-21T00:14:56;99848.78;;;6.40;91.89
77235;BME280;66253;50.526;14.974;2024-02-21T00:17:24;99846.79;;;6.39;91.95
77235;BME280;66253;50.526;14.974;2024-02-21T00:19:52;99846.98;;;6.38;91.96
77235;BME280;66253;50.526;14.974;2024-02-21T00:22:20;99847.85;;;6.37;92.12
77235;BME280;66253;50.526;14.974;2024-02-21T00:24:48;99843.63;;;6.36;92.19
77235;BME280;66253;50.526;14.974;2024-02-21T00:27:16;99839.05;;;6.36;92.18
77235;BME280;66253;50.526;14.974;2024-02-21T00:29:45;99838.38;;;6.35;92.07
77235;BME280;66253;50.526;14.974;2024-02-21T00:32:13;99829.59;;;6.34;92.09
77235;BME280;66253;50.526;14.974;2024-02-21T00:34:41;99828.29;;;6.33;92.05
77235;BME280;66253;50.526;14.974;2024-02-21T00:37:09;99826.79;;;6.32;92.15
77235;BME280;66253;50.526;14.974;2024-02-21T00:39:37;99827.17;;;6.30;92.25
77235;BME280;66253;50.526;14.974;2024-02-21T00:42:06;99830.42;;;6.29;92.28
77235;BME280;66253;50.526;14.974;2024-02-21T00:44:34;99825.02;;;6.28;92.50
77235;BME280;66253;50.526;14.974;2024-02-21T00:47:02;99823.99;;;6.28;92.38
77235;BME280;66253;50.526;14.974;2024-02-21T00:49:30;99823.87;;;6.27;92.50
77235;BME280;66253;50.526;14.974;2024-02-21T00:51:59;99815.90;;;6.27;92.50
77235;BME280;66253;50.526;14.974;2024-02-21T00:54:27;99812.50;;;6.27;92.81
77235;BME280;66253;50.526;14.974;2024-02-21T00:56:55;99807.38;;;6.28;92.95
77235;BME280;66253;50.526;14.974;2024-02-21T00:59:23;99803.31;;;6.28;92.81
77235;BME280;66253;50.526;14.974;2024-02-21T01:01:51;99797.57;;;6.27;92.64
77235;BME280;66253;50.526;14.974;2024-02-21T01:04:19;99792.83;;;6.27;92.86
77235;BME280;66253;50.526;14.974;2024-02-21T01:06:48;99786.58;;;6.26;92.83
77235;BME280;66253;50.526;14.974;2024-02-21T01:09:16;99786.09;;;6.25;92.75
77235;BME280;66253;50.526;14.974;2024-02-21T01:11:44;99787.31;;;6.24;92.75
77235;BME280;66253;50.526;14.974;2024-02-21T01:14:12;99783.07;;;6.24;92.77
77235;BME280;66253;50.526;14.974;2024-02-21T01:16:40;99783.95;;;6.23;92.81
77235;BME280;66253;50.526;14.974;2024-02-21T01:19:09;99781.25;;;6.22;92.65
77235;BME280;66253;50.526;14.974;2024-02-21T01:21:38;99780.45;;;6.21;92.75
77235;BME280;66253;50.526;14.974;2024-02-21T01:24:06;99777.95;;;6.20;92.69
77235;BME280;66253;50.526;14.974;2024-02-21T01:26:35;99773.05;;;6.19;92.88
77235;BME280;66253;50.526;14.974;2024-02-21T01:29:03;99767.83;;;6.18;92.81
77235;BME280;66253;50.526;14.974;2024-02-21T01:31:31;99761.94;;;6.16;92.90
77235;BME280;66253;50.526;14.974;2024-02-21T01:33:59;99754.73;;;6.14;92.75
77235;BME280;66253;50.526;14.974;2024-02-21T01:36:27;99750.17;;;6.13;92.85
77235;BME280;66253;50.526;14.974;2024-02-21T01:39:00;99748.38;;;6.10;92.85
77235;BME280;66253;50.526;14.974;2024-02-21T01:41:30;99746.76;;;6.07;92.72
77235;BME280;66253;50.526;14.974;2024-02-21T01:43:58;99746.32;;;6.05;92.62
77235;BME280;66253;50.526;14.974;2024-02-21T01:46:27;99743.72;;;6.01;92.43
77235;BME280;66253;50.526;14.974;2024-02-21T01:48:55;99743.64;;;5.98;92.65
77235;BME280;66253;50.526;14.974;2024-02-21T01:51:24;99740.71;;;5.94;92.34
77235;BME280;66253;50.526;14.974;2024-02-21T01:53:53;99737.20;;;5.91;92.54
77235;BME280;66253;50.526;14.974;2024-02-21T01:56:23;99733.06;;;5.87;92.60
77235;BME280;66253;50.526;14.974;2024-02-21T01:58:52;99727.38;;;5.84;92.81
77235;BME280;66253;50.526;14.974;2024-02-21T02:01:20;99732.52;;;5.82;92.87
77235;BME280;66253;50.526;14.974;2024-02-21T02:03:49;99732.79;;;5.78;92.83
77235;BME280;66253;50.526;14.974;2024-02-21T02:06:17;99730.01;;;5.75;92.86
77235;BME280;66253;50.526;14.974;2024-02-21T02:08:46;99731.95;;;5.72;93.15
77235;BME280;66253;50.526;14.974;2024-02-21T02:11:15;99724.55;;;5.70;93.30
77235;BME280;66253;50.526;14.974;2024-02-21T02:13:44;99724.03;;;5.65;93.13
77235;BME280;66253;50.526;14.974;2024-02-21T02:16:12;99721.05;;;5.62;93.37
77235;BME280;66253;50.526;14.974;2024-02-21T02:18:40;99719.44;;;5.59;93.67
77235;BME280;66253;50.526;14.974;2024-02-21T02:21:13;99719.07;;;5.60;93.98
77235;BME280;66253;50.526;14.974;2024-02-21T02:23:45;99719.73;;;5.61;94.04
77235;BME280;66253;50.526;14.974;2024-02-21T02:26:13;99716.81;;;5.62;93.90
77235;BME280;66253;50.526;14.974;2024-02-21T02:28:41;99717.00;;;5.61;93.76
77235;BME280;66253;50.526;14.974;2024-02-21T02:31:09;99716.52;;;5.60;94.07
77235;BME280;66253;50.526;14.974;2024-02-21T02:33:37;99713.78;;;5.61;94.12
77235;BME280;66253;50.526;14.974;2024-02-21T02:36:06;99714.10;;;5.62;94.16
77235;BME280;66253;50.526;14.974;2024-02-21T02:38:34;99713.41;;;5.62;94.53
77235;BME280;66253;50.526;14.974;2024-02-21T02:41:03;99708.31;;;5.63;94.05
77235;BME280;66253;50.526;14.974;2024-02-21T02:43:31;99695.95;;;5.63;94.50
77235;BME280;66253;50.526;14.974;2024-02-21T02:45:59;99692.65;;;5.65;94.47
77235;BME280;66253;50.526;14.974;2024-02-21T02:48:27;99686.86;;;5.67;94.43
77235;BME280;66253;50.526;14.974;2024-02-21T02:50:56;99680.56;;;5.68;94.41
77235;BME280;66253;50.526;14.974;2024-02-21T02:53:24;99676.48;;;5.68;94.64
77235;BME280;66253;50.526;14.974;2024-02-21T02:55:52;99673.82;;;5.66;94.17
77235;BME280;66253;50.526;14.974;2024-02-21T02:58:20;99672.50;;;5.65;94.30
77235;BME280;66253;50.526;14.974;2024-02-21T03:00:48;99675.17;;;5.65;94.53
77235;BME280;66253;50.526;14.974;2024-02-21T03:03:16;99675.88;;;5.65;94.68
77235;BME280;66253;50.526;14.974;2024-02-21T03:05:45;99675.23;;;5.64;94.52
77235;BME280;66253;50.526;14.974;2024-02-21T03:08:13;99671.21;;;5.63;94.62
77235;BME280;66253;50.526;14.974;2024-02-21T03:10:42;99672.92;;;5.62;94.76
77235;BME280;66253;50.526;14.974;2024-02-21T03:13:10;99673.45;;;5.61;94.78
77235;BME280;66253;50.526;14.974;2024-02-21T03:15:38;99675.15;;;5.61;95.03
77235;BME280;66253;50.526;14.974;2024-02-21T03:18:07;99672.45;;;5.61;94.82
77235;BME280;66253;50.526;14.974;2024-02-21T03:20:35;99668.17;;;5.62;94.81
77235;BME280;66253;50.526;14.974;2024-02-21T03:23:03;99670.85;;;5.63;94.83
77235;BME280;66253;50.526;14.974;2024-02-21T03:25:32;99666.39;;;5.65;94.90
77235;BME280;66253;50.526;14.974;2024-02-21T03:28:00;99668.05;;;5.66;94.78
77235;BME280;66253;50.526;14.974;2024-02-21T03:30:28;99666.48;;;5.62;94.74
77235;BME280;66253;50.526;14.974;2024-02-21T03:32:56;99664.35;;;5.59;94.66
77235;BME280;66253;50.526;14.974;2024-02-21T03:35:24;99663.59;;;5.57;94.87
77235;BME280;66253;50.526;14.974;2024-02-21T03:37:52;99661.98;;;5.54;94.66
77235;BME280;66253;50.526;14.974;2024-02-21T03:40:21;99656.60;;;5.52;94.91
77235;BME280;66253;50.526;14.974;2024-02-21T03:42:49;99658.33;;;5.51;95.03
77235;BME280;66253;50.526;14.974;2024-02-21T03:45:17;99656.14;;;5.51;95.00
77235;BME280;66253;50.526;14.974;2024-02-21T03:47:45;99660.52;;;5.51;95.21
77235;BME280;66253;50.526;14.974;2024-02-21T03:50:14;99659.16;;;5.51;95.42
77235;BME280;66253;50.526;14.974;2024-02-21T03:52:42;99661.33;;;5.53;95.26
77235;BME280;66253;50.526;14.974;2024-02-21T03:55:10;99658.08;;;5.54;95.37
77235;BME280;66253;50.526;14.974;2024-02-21T03:57:38;99657.67;;;5.56;95.69
77235;BME280;66253;50.526;14.974;2024-02-21T04:00:08;99658.45;;;5.58;95.66
77235;BME280;66253;50.526;14.974;2024-02-21T04:02:35;99660.96;;;5.59;95.36
77235;BME280;66253;50.526;14.974;2024-02-21T04:05:04;99664.80;;;5.62;95.11
77235;BME280;66253;50.526;14.974;2024-02-21T04:07:33;99658.18;;;5.62;95.20
77235;BME280;66253;50.526;14.974;2024-02-21T04:10:01;99658.52;;;5.62;95.15
77235;BME280;66253;50.526;14.974;2024-02-21T04:12:30;99653.94;;;5.62;95.30
77235;BME280;66253;50.526;14.974;2024-02-21T04:14:59;99652.88;;;5.64;95.48
77235;BME280;66253;50.526;14.974;2024-02-21T04:17:27;99647.23;;;5.65;95.32
77235;BME280;66253;50.526;14.974;2024-02-21T04:20:03;99646.05;;;5.65;95.46
77235;BME280;66253;50.526;14.974;2024-02-21T04:22:33;99647.88;;;5.67;95.19
77235;BME280;66253;50.526;14.974;2024-02-21T04:25:02;99645.86;;;5.66;94.95
77235;BME280;66253;50.526;14.974;2024-02-21T04:27:31;99645.10;;;5.63;94.99
77235;BME280;66253;50.526;14.974;2024-02-21T04:29:59;99642.07;;;5.62;94.95
77235;BME280;66253;50.526;14.974;2024-02-21T04:32:30;99643.48;;;5.61;95.04
77235;BME280;66253;50.526;14.974;2024-02-21T04:34:58;99635.04;;;5.59;94.97
77235;BME280;66253;50.526;14.974;2024-02-21T04:37:26;99628.98;;;5.58;95.22
77235;BME280;66253;50.526;14.974;2024-02-21T04:39:55;99622.96;;;5.55;95.37
77235;BME280;66253;50.526;14.974;2024-02-21T04:42:23;99621.87;;;5.52;95.03
77235;BME280;66253;50.526;14.974;2024-02-21T04:44:51;99622.16;;;5.48;95.14
77235;BME280;66253;50.526;14.974;2024-02-21T04:47:19;99619.06;;;5.44;95.14
77235;BME280;66253;50.526;14.974;2024-02-21T04:49:48;99617.73;;;5.43;95.37
77235;BME280;66253;50.526;14.974;2024-02-21T04:52:16;99619.77;;;5.41;95.14
77235;BME280;66253;50.526;14.974;2024-02-21T04:54:44;99617.92;;;5.41;95.62
77235;BME280;66253;50.526;14.974;2024-02-21T04:57:12;99616.89;;;5.42;95.71
77235;BME280;66253;50.526;14.974;2024-02-21T04:59:40;99616.70;;;5.43;95.45
77235;BME280;66253;50.526;14.974;2024-02-21T05:02:08;99619.52;;;5.46;95.51
77235;BME280;66253;50.526;14.974;2024-02-21T05:04:36;99616.79;;;5.46;95.34
77235;BME280;66253;50.526;14.974;2024-02-21T05:07:05;99614.77;;;5.46;95.52
77235;BME280;66253;50.526;14.974;2024-02-21T05:09:33;99610.06;;;5.45;95.60
77235;BME280;66253;50.526;14.974;2024-02-21T05:12:01;99606.73;;;5.42;95.20
77235;BME280;66253;50.526;14.974;2024-02-21T05:14:31;99606.80;;;5.40;95.62
77235;BME280;66253;50.526;14.974;2024-02-21T05:16:59;99607.62;;;5.41;95.23
77235;BME280;66253;50.526;14.974;2024-02-21T05:19:27;99604.55;;;5.41;95.43
77235;BME280;66253;50.526;14.974;2024-02-21T05:21:55;99607.07;;;5.42;95.17
77235;BME280;66253;50.526;14.974;2024-02-21T05:24:23;99609.59;;;5.43;95.16
77235;BME280;66253;50.526;14.974;2024-02-21T05:26:53;99608.61;;;5.41;94.98
77235;BME280;66253;50.526;14.974;2024-02-21T05:29:21;99611.02;;;5.41;95.14
77235;BME280;66253;50.526;14.974;2024-02-21T05:31:58;99614.23;;;5.41;94.94
77235;BME280;66253;50.526;14.974;2024-02-21T05:34:26;99608.84;;;5.39;94.94
77235;BME280;66253;50.526;14.974;2024-02-21T05:36:55;99607.58;;;5.37;94.51
77235;BME280;66253;50.526;14.974;2024-02-21T05:39:23;99605.80;;;5.34;94.94
77235;BME280;66253;50.526;14.974;2024-02-21T05:41:51;99608.89;;;5.32;94.80
77235;BME280;66253;50.526;14.974;2024-02-21T05:44:19;99604.42;;;5.28;94.65
77235;BME280;66253;50.526;14.974;2024-02-21T05:46:47;99605.86;;;5.25;94.59
77235;BME280;66253;50.526;14.974;2024-02-21T05:49:16;99610.48;;;5.24;94.82
77235;BME280;66253;50.526;14.974;2024-02-21T05:51:44;99606.67;;;5.21;95.02
77235;BME280;66253;50.526;14.974;2024-02-21T05:54:12;99604.20;;;5.18;94.88
77235;BME280;66253;50.526;14.974;2024-02-21T05:56:43;99605.25;;;5.16;94.78
77235;BME280;66253;50.526;14.974;2024-02-21T05:59:11;99605.84;;;5.14;95.04
77235;BME280;66253;50.526;14.974;2024-02-21T06:01:39;99605.86;;;5.13;95.10
77235;BME280;66253;50.526;14.974;2024-02-21T06:04:08;99608.80;;;5.11;95.14
77235;BME280;66253;50.526;14.974;2024-02-21T06:06:36;99607.29;;;5.10;95.20
77235;BME280;66253;50.526;14.974;2024-02-21T06:09:04;99600.92;;;5.07;95.48
77235;BME280;66253;50.526;14.974;2024-02-21T06:11:33;99599.40;;;5.08;95.60
77235;BME280;66253;50.526;14.974;2024-02-21T06:14:01;99595.33;;;5.08;95.39
77235;BME280;66253;50.526;14.974;2024-02-21T06:16:31;99596.23;;;5.06;95.71
77235;BME280;66253;50.526;14.974;2024-02-21T06:18:59;99601.80;;;5.06;95.98
77235;BME280;66253;50.526;14.974;2024-02-21T06:21:31;99600.08;;;5.08;96.39
77235;BME280;66253;50.526;14.974;2024-02-21T06:23:59;99598.81;;;5.11;96.18
77235;BME280;66253;50.526;14.974;2024-02-21T06:26:27;99590.50;;;5.11;95.93
77235;BME280;66253;50.526;14.974;2024-02-21T06:28:55;99591.20;;;5.10;96.25
77235;BME280;66253;50.526;14.974;2024-02-21T06:31:24;99584.75;;;5.11;96.27
77235;BME280;66253;50.526;14.974;2024-02-21T06:33:52;99590.95;;;5.13;96.63
77235;BME280;66253;50.526;14.974;2024-02-21T06:36:20;99589.58;;;5.14;96.53
77235;BME280;66253;50.526;14.974;2024-02-21T06:38:48;99588.33;;;5.16;96.32
77235;BME280;66253;50.526;14.974;2024-02-21T06:41:20;99591.80;;;5.19;96.80
77235;BME280;66253;50.526;14.974;2024-02-21T06:43:48;99587.45;;;5.23;96.53
77235;BME280;66253;50.526;14.974;2024-02-21T06:46:25;99591.06;;;5.27;96.79
77235;BME280;66253;50.526;14.974;2024-02-21T06:48:53;99582.51;;;5.31;96.91
77235;BME280;66253;50.526;14.974;2024-02-21T06:51:21;99585.25;;;5.35;96.80
77235;BME280;66253;50.526;14.974;2024-02-21T06:53:50;99587.01;;;5.39;96.89
77235;BME280;66253;50.526;14.974;2024-02-21T06:56:18;99584.93;;;5.40;96.88
77235;BME280;66253;50.526;14.974;2024-02-21T06:58:47;99582.67;;;5.42;97.03
77235;BME280;66253;50.526;14.974;2024-02-21T07:01:15;99581.73;;;5.46;97.31
77235;BME280;66253;50.526;14.974;2024-02-21T07:03:43;99579.75;;;5.49;97.34
77235;BME280;66253;50.526;14.974;2024-02-21T07:06:11;99582.55;;;5.52;97.48
77235;BME280;66253;50.526;14.974;2024-02-21T07:08:39;99585.08;;;5.52;97.57
77235;BME280;66253;50.526;14.974;2024-02-21T07:11:07;99586.31;;;5.51;97.78
77235;BME280;66253;50.526;14.974;2024-02-21T07:13:36;99587.22;;;5.55;97.78
77235;BME280;66253;50.526;14.974;2024-02-21T07:16:04;99583.00;;;5.60;98.04
77235;BME280;66253;50.526;14.974;2024-02-21T07:18:33;99582.58;;;5.63;97.92
77235;BME280;66253;50.526;14.974;2024-02-21T07:21:01;99577.13;;;5.64;97.78
77235;BME280;66253;50.526;14.974;2024-02-21T07:23:31;99573.91;;;5.64;97.96
77235;BME280;66253;50.526;14.974;2024-02-21T07:25:59;99572.50;;;5.65;98.00
77235;BME280;66253;50.526;14.974;2024-02-21T07:28:27;99567.39;;;5.66;98.08
77235;BME280;66253;50.526;14.974;2024-02-21T07:30:55;99562.88;;;5.70;98.22
77235;BME280;66253;50.526;14.974;2024-02-21T07:33:24;99562.25;;;5.74;98.12
77235;BME280;66253;50.526;14.974;2024-02-21T07:35:52;99562.81;;;5.78;98.43
77235;BME280;66253;50.526;14.974;2024-02-21T07:38:20;99561.00;;;5.82;98.47
77235;BME280;66253;50.526;14.974;2024-02-21T07:40:49;99558.34;;;5.85;98.28
77235;BME280;66253;50.526;14.974;2024-02-21T07:43:17;99561.83;;;5.87;98.23
77235;BME280;66253;50.526;14.974;2024-02-21T07:45:45;99560.88;;;5.91;98.16
77235;BME280;66253;50.526;14.974;2024-02-21T07:48:13;99560.80;;;5.95;98.16
77235;BME280;66253;50.526;14.974;2024-02-21T07:50:41;99561.38;;;5.98;97.91
77235;BME280;66253;50.526;14.974;2024-02-21T07:53:09;99562.39;;;6.03;98.05
77235;BME280;66253;50.526;14.974;2024-02-21T07:55:37;99560.52;;;6.08;97.92
77235;BME280;66253;50.526;14.974;2024-02-21T07:58:06;99562.07;;;6.13;97.95
77235;BME280;66253;50.526;14.974;2024-02-21T08:00:34;99563.98;;;6.17;97.55
77235;BME280;66253;50.526;14.974;2024-02-21T08:03:02;99564.71;;;6.20;97.73
77235;BME280;66253;50.526;14.974;2024-02-21T08:05:33;99569.70;;;6.23;97.86
77235;BME280;66253;50.526;14.974;2024-02-21T08:08:01;99571.49;;;6.26;97.76
77235;BME280;66253;50.526;14.974;2024-02-21T08:10:30;99570.71;;;6.29;98.01
77235;BME280;66253;50.526;14.974;2024-02-21T08:12:58;99569.38;;;6.33;97.97
77235;BME280;66253;50.526;14.974;2024-02-21T08:15:26;99563.33;;;6.37;97.91
77235;BME280;66253;50.526;14.974;2024-02-21T08:17:54;99557.07;;;6.41;97.75
77235;BME280;66253;50.526;14.974;2024-02-21T08:20:22;99555.59;;;6.45;97.95
77235;BME280;66253;50.526;14.974;2024-02-21T08:22:51;99557.94;;;6.51;97.73
77235;BME280;66253;50.526;14.974;2024-02-21T08:25:19;99556.23;;;6.56;98.00
77235;BME280;66253;50.526;14.974;2024-02-21T08:27:47;99547.89;;;6.62;98.05
77235;BME280;66253;50.526;14.974;2024-02-21T08:30:16;99540.66;;;6.70;97.99
77235;BME280;66253;50.526;14.974;2024-02-21T08:32:44;99533.83;;;6.80;97.89
77235;BME280;66253;50.526;14.974;2024-02-21T08:35:13;99528.41;;;6.90;97.50
77235;BME280;66253;50.526;14.974;2024-02-21T08:37:41;99531.14;;;6.99;97.35
77235;BME280;66253;50.526;14.974;2024-02-21T08:40:11;99530.85;;;7.07;97.01
77235;BME280;66253;50.526;14.974;2024-02-21T08:42:40;99532.46;;;7.14;96.69
77235;BME280;66253;50.526;14.974;2024-02-21T08:45:10;99530.23;;;7.18;96.44
77235;BME280;66253;50.526;14.974;2024-02-21T08:47:40;99532.29;;;7.23;96.04
77235;BME280;66253;50.526;14.974;2024-02-21T08:50:09;99534.17;;;7.27;95.86
77235;BME280;66253;50.526;14.974;2024-02-21T08:52:38;99533.16;;;7.31;95.38
77235;BME280;66253;50.526;14.974;2024-02-21T08:55:07;99535.15;;;7.33;94.92
77235;BME280;66253;50.526;14.974;2024-02-21T08:57:35;99534.92;;;7.34;94.72
77235;BME280;66253;50.526;14.974;2024-02-21T09:00:07;99535.16;;;7.37;94.58
77235;BME280;66253;50.526;14.974;2024-02-21T09:02:35;99531.98;;;7.40;94.64
77235;BME280;66253;50.526;14.974;2024-02-21T09:05:04;99532.42;;;7.46;94.46
77235;BME280;66253;50.526;14.974;2024-02-21T09:07:32;99534.73;;;7.53;94.69
77235;BME280;66253;50.526;14.974;2024-02-21T09:10:01;99538.09;;;7.58;94.43
77235;BME280;66253;50.526;14.974;2024-02-21T09:12:30;99534.52;;;7.63;93.99
77235;BME280;66253;50.526;14.974;2024-02-21T09:14:58;99535.42;;;7.66;94.00
77235;BME280;66253;50.526;14.974;2024-02-21T09:17:28;99524.45;;;7.68;93.99
77235;BME280;66253;50.526;14.974;2024-02-21T09:19:56;99522.43;;;7.72;93.88
77235;BME280;66253;50.526;14.974;2024-02-21T09:22:24;99521.27;;;7.75;93.49
77235;BME280;66253;50.526;14.974;2024-02-21T09:24:53;99512.54;;;7.82;94.02
77235;BME280;66253;50.526;14.974;2024-02-21T09:27:21;99509.01;;;7.89;93.65
77235;BME280;66253;50.526;14.974;2024-02-21T09:29:49;99508.05;;;7.96;93.21
77235;BME280;66253;50.526;14.974;2024-02-21T09:32:17;99504.81;;;8.04;93.33
77235;BME280;66253;50.526;14.974;2024-02-21T09:34:46;99500.60;;;8.11;93.31
77235;BME280;66253;50.526;14.974;2024-02-21T09:37:14;99497.61;;;8.18;92.90
77235;BME280;66253;50.526;14.974;2024-02-21T09:39:42;99497.88;;;8.24;92.64
77235;BME280;66253;50.526;14.974;2024-02-21T09:42:12;99502.29;;;8.28;92.35
77235;BME280;66253;50.526;14.974;2024-02-21T09:44:40;99501.27;;;8.32;92.06
77235;BME280;66253;50.526;14.974;2024-02-21T09:47:12;99500.42;;;8.37;91.82
77235;BME280;66253;50.526;14.974;2024-02-21T09:49:43;99492.66;;;8.39;91.53
77235;BME280;66253;50.526;14.974;2024-02-21T09:52:13;99499.39;;;8.41;90.76
77235;BME280;66253;50.526;14.974;2024-02-21T09:54:43;99497.50;;;8.41;90.81
77235;BME280;66253;50.526;14.974;2024-02-21T09:57:11;99487.81;;;8.41;90.40
77235;BME280;66253;50.526;14.974;2024-02-21T09:59:39;99489.07;;;8.40;90.38
77235;BME280;66253;50.526;14.974;2024-02-21T10:02:07;99488.31;;;8.41;90.00
77235;BME280;66253;50.526;14.974;2024-02-21T10:04:35;99487.83;;;8.45;90.80
77235;BME280;66253;50.526;14.974;2024-02-21T10:07:04;99485.59;;;8.49;91.02
77235;BME280;66253;50.526;14.974;2024-02-21T10:09:32;99476.97;;;8.56;90.42
77235;BME280;66253;50.526;14.974;2024-02-21T10:12:11;99475.63;;;8.67;90.34
77235;BME280;66253;50.526;14.974;2024-02-21T10:14:40;99463.21;;;8.82;90.18
77235;BME280;66253;50.526;14.974;2024-02-21T10:17:14;99461.36;;;8.97;90.46
77235;BME280;66253;50.526;14.974;2024-02-21T10:19:42;99462.03;;;9.12;90.72
77235;BME280;66253;50.526;14.974;2024-02-21T10:22:11;99463.67;;;9.28;89.89
77235;BME280;66253;50.526;14.974;2024-02-21T10:24:39;99462.48;;;9.42;88.66
77235;BME280;66253;50.526;14.974;2024-02-21T10:27:08;99460.92;;;9.57;89.09
77235;BME280;66253;50.526;14.974;2024-02-21T10:29:37;99461.95;;;9.75;88.36
77235;BME280;66253;50.526;14.974;2024-02-21T10:32:09;99464.48;;;9.93;87.40
77235;BME280;66253;50.526;14.974;2024-02-21T10:34:39;99457.48;;;10.00;86.24
77235;BME280;66253;50.526;14.974;2024-02-21T10:37:08;99461.38;;;10.04;86.73
77235;BME280;66253;50.526;14.974;2024-02-21T10:39:37;99461.10;;;10.06;85.33
77235;BME280;66253;50.526;14.974;2024-02-21T10:42:07;99458.60;;;10.05;84.84
77235;BME280;66253;50.526;14.974;2024-02-21T10:44:39;99454.02;;;10.01;84.14
77235;BME280;66253;50.526;14.974;2024-02-21T10:47:09;99448.84;;;9.98;84.30
77235;BME280;66253;50.526;14.974;2024-02-21T10:49:40;99443.73;;;9.95;83.91
77235;BME280;66253;50.526;14.974;2024-02-21T10:52:14;99445.50;;;9.90;83.40
77235;BME280;66253;50.526;14.974;2024-02-21T10:54:45;99446.50;;;9.88;83.17
77235;BME280;66253;50.526;14.974;2024-02-21T10:57:15;99447.52;;;9.84;83.15
77235;BME280;66253;50.526;14.974;2024-02-21T10:59:45;99442.50;;;9.82;83.67
77235;BME280;66253;50.526;14.974;2024-02-21T11:02:16;99441.09;;;9.79;83.44
77235;BME280;66253;50.526;14.974;2024-02-21T11:04:45;99436.08;;;9.77;83.91
77235;BME280;66253;50.526;14.974;2024-02-21T11:07:14;99430.81;;;9.77;83.46
77235;BME280;66253;50.526;14.974;2024-02-21T11:09:52;99423.13;;;9.77;83.31
77235;BME280;66253;50.526;14.974;2024-02-21T11:12:23;99419.05;;;9.80;83.88
77235;BME280;66253;50.526;14.974;2024-02-21T11:14:51;99418.05;;;9.83;83.58
77235;BME280;66253;50.526;14.974;2024-02-21T11:17:20;99419.76;;;9.86;83.39
77235;BME280;66253;50.526;14.974;2024-02-21T11:19:48;99414.07;;;9.88;82.51
77235;BME280;66253;50.526;14.974;2024-02-21T11:22:17;99414.08;;;9.88;82.77
77235;BME280;66253;50.526;14.974;2024-02-21T11:24:46;99409.03;;;9.89;82.65
77235;BME280;66253;50.526;14.974;2024-02-21T11:27:18;99409.30;;;9.91;82.87
77235;BME280;66253;50.526;14.974;2024-02-21T11:29:47;99408.02;;;9.93;83.23
77235;BME280;66253;50.526;14.974;2024-02-21T11:32:17;99403.02;;;9.94;82.80
77235;BME280;66253;50.526;14.974;2024-02-21T11:34:56;99400.14;;;9.97;83.07
77235;BME280;66253;50.526;14.974;2024-02-21T11:37:25;99394.56;;;9.99;82.75
77235;BME280;66253;50.526;14.974;2024-02-21T11:39:54;99392.66;;;9.99;82.42
77235;BME280;66253;50.526;14.974;2024-02-21T11:42:22;99387.31;;;10.01;82.25
77235;BME280;66253;50.526;14.974;2024-02-21T11:44:52;99384.17;;;10.02;81.97
77235;BME280;66253;50.526;14.974;2024-02-21T11:47:21;99379.86;;;10.03;81.94
77235;BME280;66253;50.526;14.974;2024-02-21T11:49:50;99373.19;;;10.03;81.52
77235;BME280;66253;50.526;14.974;2024-02-21T11:52:18;99367.55;;;10.03;81.44
77235;BME280;66253;50.526;14.974;2024-02-21T11:54:46;99366.88;;;10.03;80.46
77235;BME280;66253;50.526;14.974;2024-02-21T11:57:14;99363.25;;;10.04;81.01
77235;BME280;66253;50.526;14.974;2024-02-21T11:59:43;99357.96;;;10.04;80.83
77235;BME280;66253;50.526;14.974;2024-02-21T12:02:12;99357.52;;;10.05;80.85
77235;BME280;66253;50.526;14.974;2024-02-21T12:04:41;99357.60;;;10.07;81.24
77235;BME280;66253;50.526;14.974;2024-02-21T12:07:10;99351.18;;;10.10;81.07
77235;BME280;66253;50.526;14.974;2024-02-21T12:09:38;99344.49;;;10.13;81.00
77235;BME280;66253;50.526;14.974;2024-02-21T12:12:10;99341.64;;;10.16;81.22
77235;BME280;66253;50.526;14.974;2024-02-21T12:14:38;99341.01;;;10.22;81.22
77235;BME280;66253;50.526;14.974;2024-02-21T12:17:06;99339.45;;;10.29;80.50
77235;BME280;66253;50.526;14.974;2024-02-21T12:19:35;99332.45;;;10.39;81.01
77235;BME280;66253;50.526;14.974;2024-02-21T12:22:03;99326.55;;;10.47;79.97
77235;BME280;66253;50.526;14.974;2024-02-21T12:24:31;99321.30;;;10.52;79.43
77235;BME280;66253;50.526;14.974;2024-02-21T12:26:59;99314.95;;;10.56;79.46
77235;BME280;66253;50.526;14.974;2024-02-21T12:29:30;99313.21;;;10.60;79.25
77235;BME280;66253;50.526;14.974;2024-02-21T12:31:59;99308.14;;;10.62;78.62
77235;BME280;66253;50.526;14.974;2024-02-21T12:34:27;99302.70;;;10.65;78.56
77235;BME280;66253;50.526;14.974;2024-02-21T12:36:58;99299.06;;;10.66;78.11
77235;BME280;66253;50.526;14.974;2024-02-21T12:39:26;99289.86;;;10.65;78.33
77235;BME280;66253;50.526;14.974;2024-02-21T12:41:54;99285.48;;;10.64;77.96
77235;BME280;66253;50.526;14.974;2024-02-21T12:44:23;99287.98;;;10.62;77.77
77235;BME280;66253;50.526;14.974;2024-02-21T12:46:52;99285.73;;;10.60;77.45
77235;BME280;66253;50.526;14.974;2024-02-21T12:49:20;99288.33;;;10.55;77.96
77235;BME280;66253;50.526;14.974;2024-02-21T12:51:48;99293.55;;;10.54;78.20
77235;BME280;66253;50.526;14.974;2024-02-21T12:54:16;99282.19;;;10.53;78.06
77235;BME280;66253;50.526;14.974;2024-02-21T12:56:45;99273.96;;;10.53;78.05
77235;BME280;66253;50.526;14.974;2024-02-21T12:59:13;99271.60;;;10.52;77.71
77235;BME280;66253;50.526;14.974;2024-02-21T13:01:41;99264.01;;;10.51;77.89
77235;BME280;66253;50.526;14.974;2024-02-21T13:04:09;99255.80;;;10.51;78.31
77235;BME280;66253;50.526;14.974;2024-02-21T13:06:37;99249.19;;;10.50;77.69